SUR4070 SPJC-SPQU
Flight info
| Callsign | SUR4070 |
|---|---|
| Flight time | N/A |
| Altitude | 25000 |
| Route | AKSOL UT222 ASUPA |
| Aircraft | E175/L-S/1200 |
Departure
| Time | 2026-04-27 19:56 |
|---|---|
| Airport | Jorge Chávez International Airport (SPJC) |
Arrival
| Time | N/A |
|---|---|
| Airport | Rodríguez Ballón International Airport (SPQU) |
| Time | Latitude | Longitude | Altitude | Speed | Heading |
|---|---|---|---|---|---|
| 2026-04-27 19:51 | -12.02837 | -77.11951 | 119 ft | 0 kts | 149° |
| 2026-04-27 19:51 | -12.02838 | -77.11950 | 119 ft | 0 kts | 149° |
| 2026-04-27 19:51 | -12.02861 | -77.11943 | 119 ft | 4 kts | 165° |
| 2026-04-27 19:51 | -12.02897 | -77.11935 | 119 ft | 6 kts | 167° |
| 2026-04-27 19:52 | -12.02940 | -77.11925 | 119 ft | 6 kts | 168° |
| 2026-04-27 19:52 | -12.02989 | -77.11916 | 119 ft | 7 kts | 173° |
| 2026-04-27 19:52 | -12.03041 | -77.11912 | 119 ft | 7 kts | 182° |
| 2026-04-27 19:52 | -12.03098 | -77.11916 | 119 ft | 8 kts | 185° |
| 2026-04-27 19:53 | -12.03223 | -77.11919 | 119 ft | 9 kts | 166° |
| 2026-04-27 19:53 | -12.03285 | -77.11897 | 119 ft | 9 kts | 156° |
| 2026-04-27 19:53 | -12.03349 | -77.11869 | 119 ft | 10 kts | 158° |
| 2026-04-27 19:54 | -12.03416 | -77.11858 | 119 ft | 8 kts | 197° |
| 2026-04-27 19:54 | -12.03438 | -77.11874 | 119 ft | 0 kts | 226° |
| 2026-04-27 19:54 | -12.03439 | -77.11876 | 119 ft | 2 kts | 227° |
| 2026-04-27 19:54 | -12.03471 | -77.11935 | 119 ft | 11 kts | 249° |
| 2026-04-27 19:55 | -12.03447 | -77.12003 | 119 ft | 15 kts | 327° |
| 2026-04-27 19:55 | -12.03131 | -77.12168 | 119 ft | 83 kts | 333° |
| 2026-04-27 19:55 | -12.02437 | -77.12511 | 119 ft | 136 kts | 334° |
| 2026-04-27 19:55 | -12.01444 | -77.12933 | 273 ft | 162 kts | 340° |
| 2026-04-27 19:56 | -12.00304 | -77.13343 | 537 ft | 185 kts | 346° |
| 2026-04-27 19:56 | -11.99022 | -77.13673 | 853 ft | 203 kts | 349° |
| 2026-04-27 19:56 | -11.97512 | -77.13912 | 1157 ft | 233 kts | 356° |
| 2026-04-27 19:56 | -11.95903 | -77.13556 | 1652 ft | 247 kts | 37° |
| 2026-04-27 19:57 | -11.94880 | -77.12206 | 2150 ft | 245 kts | 77° |
| 2026-04-27 19:57 | -11.94899 | -77.10673 | 2581 ft | 247 kts | 111° |